sensor_id;sensor_type;location;lat;lon;timestamp;temperature;humidity
25450;DHT22;13371;52.080;5.624;2022-07-26T00:01:53;22.20;89.40
25450;DHT22;13371;52.080;5.624;2022-07-26T00:04:19;22.20;89.00
25450;DHT22;13371;52.080;5.624;2022-07-26T00:06:45;22.20;89.60
25450;DHT22;13371;52.080;5.624;2022-07-26T00:09:10;22.20;89.40
25450;DHT22;13371;52.080;5.624;2022-07-26T00:11:36;22.20;89.90
25450;DHT22;13371;52.080;5.624;2022-07-26T00:14:03;22.20;89.20
25450;DHT22;13371;52.080;5.624;2022-07-26T00:16:29;22.40;88.70
25450;DHT22;13371;52.080;5.624;2022-07-26T00:18:55;22.40;88.50
25450;DHT22;13371;52.080;5.624;2022-07-26T00:21:21;22.30;88.80
25450;DHT22;13371;52.080;5.624;2022-07-26T00:23:47;22.20;89.50
25450;DHT22;13371;52.080;5.624;2022-07-26T00:26:12;21.80;90.30
25450;DHT22;13371;52.080;5.624;2022-07-26T00:28:38;22.00;90.20
25450;DHT22;13371;52.080;5.624;2022-07-26T00:31:05;22.20;89.70
25450;DHT22;13371;52.080;5.624;2022-07-26T00:33:31;22.00;90.10
25450;DHT22;13371;52.080;5.624;2022-07-26T00:35:57;22.00;90.20
25450;DHT22;13371;52.080;5.624;2022-07-26T00:38:23;22.30;89.60
25450;DHT22;13371;52.080;5.624;2022-07-26T00:40:48;22.30;89.30
25450;DHT22;13371;52.080;5.624;2022-07-26T00:43:14;22.30;89.30
25450;DHT22;13371;52.080;5.624;2022-07-26T00:45:40;22.20;89.80
25450;DHT22;13371;52.080;5.624;2022-07-26T00:48:05;22.30;89.60
25450;DHT22;13371;52.080;5.624;2022-07-26T00:50:31;22.30;89.30
25450;DHT22;13371;52.080;5.624;2022-07-26T00:52:57;22.30;89.60
25450;DHT22;13371;52.080;5.624;2022-07-26T00:55:22;22.30;89.30
25450;DHT22;13371;52.080;5.624;2022-07-26T00:57:48;22.20;89.30
25450;DHT22;13371;52.080;5.624;2022-07-26T01:00:18;22.20;89.30
25450;DHT22;13371;52.080;5.624;2022-07-26T01:02:44;22.30;89.30
25450;DHT22;13371;52.080;5.624;2022-07-26T01:05:10;22.40;88.40
25450;DHT22;13371;52.080;5.624;2022-07-26T01:07:37;22.30;89.10
25450;DHT22;13371;52.080;5.624;2022-07-26T01:10:08;22.30;88.90
25450;DHT22;13371;52.080;5.624;2022-07-26T01:12:42;22.20;88.80
25450;DHT22;13371;52.080;5.624;2022-07-26T01:15:10;22.10;89.40
25450;DHT22;13371;52.080;5.624;2022-07-26T01:17:36;22.10;89.30
25450;DHT22;13371;52.080;5.624;2022-07-26T01:20:03;22.30;89.00
25450;DHT22;13371;52.080;5.624;2022-07-26T01:22:29;22.20;89.10
25450;DHT22;13371;52.080;5.624;2022-07-26T01:24:54;22.30;88.60
25450;DHT22;13371;52.080;5.624;2022-07-26T01:27:20;22.20;89.00
25450;DHT22;13371;52.080;5.624;2022-07-26T01:29:45;22.20;88.80
25450;DHT22;13371;52.080;5.624;2022-07-26T01:32:11;22.20;88.80
25450;DHT22;13371;52.080;5.624;2022-07-26T01:34:36;22.30;88.10
25450;DHT22;13371;52.080;5.624;2022-07-26T01:37:02;22.00;88.90
25450;DHT22;13371;52.080;5.624;2022-07-26T01:39:28;22.10;89.10
25450;DHT22;13371;52.080;5.624;2022-07-26T01:41:54;22.20;88.50
25450;DHT22;13371;52.080;5.624;2022-07-26T01:44:21;22.10;89.00
25450;DHT22;13371;52.080;5.624;2022-07-26T01:46:47;22.10;88.40
25450;DHT22;13371;52.080;5.624;2022-07-26T01:49:13;22.10;88.80
25450;DHT22;13371;52.080;5.624;2022-07-26T01:51:38;22.20;88.30
25450;DHT22;13371;52.080;5.624;2022-07-26T01:54:04;22.10;89.40
25450;DHT22;13371;52.080;5.624;2022-07-26T01:56:30;22.00;89.10
25450;DHT22;13371;52.080;5.624;2022-07-26T01:58:55;22.10;88.80
25450;DHT22;13371;52.080;5.624;2022-07-26T02:01:21;22.10;88.40
25450;DHT22;13371;52.080;5.624;2022-07-26T02:03:46;22.00;88.90
25450;DHT22;13371;52.080;5.624;2022-07-26T02:06:12;21.90;89.50
25450;DHT22;13371;52.080;5.624;2022-07-26T02:08:38;21.90;89.80
25450;DHT22;13371;52.080;5.624;2022-07-26T02:11:03;21.80;90.00
25450;DHT22;13371;52.080;5.624;2022-07-26T02:13:37;21.70;90.20
25450;DHT22;13371;52.080;5.624;2022-07-26T02:16:18;21.60;90.60
25450;DHT22;13371;52.080;5.624;2022-07-26T02:18:44;21.60;90.50
25450;DHT22;13371;52.080;5.624;2022-07-26T02:21:09;21.50;90.40
25450;DHT22;13371;52.080;5.624;2022-07-26T02:23:35;21.50;90.60
25450;DHT22;13371;52.080;5.624;2022-07-26T02:26:01;21.90;90.40
25450;DHT22;13371;52.080;5.624;2022-07-26T02:28:27;22.00;90.00
25450;DHT22;13371;52.080;5.624;2022-07-26T02:30:52;21.80;90.00
25450;DHT22;13371;52.080;5.624;2022-07-26T02:33:19;21.90;90.10
25450;DHT22;13371;52.080;5.624;2022-07-26T02:35:45;21.80;90.20
25450;DHT22;13371;52.080;5.624;2022-07-26T02:38:13;21.70;90.20
25450;DHT22;13371;52.080;5.624;2022-07-26T02:40:40;21.70;90.30
25450;DHT22;13371;52.080;5.624;2022-07-26T02:43:06;21.90;90.20
25450;DHT22;13371;52.080;5.624;2022-07-26T02:45:33;21.80;90.20
25450;DHT22;13371;52.080;5.624;2022-07-26T02:47:59;21.70;90.30
25450;DHT22;13371;52.080;5.624;2022-07-26T02:50:26;21.50;90.50
25450;DHT22;13371;52.080;5.624;2022-07-26T02:52:53;21.50;90.60
25450;DHT22;13371;52.080;5.624;2022-07-26T02:55:20;21.70;90.40
25450;DHT22;13371;52.080;5.624;2022-07-26T02:57:46;21.70;90.30
25450;DHT22;13371;52.080;5.624;2022-07-26T03:00:14;21.70;90.20
25450;DHT22;13371;52.080;5.624;2022-07-26T03:02:40;21.80;90.30
25450;DHT22;13371;52.080;5.624;2022-07-26T03:05:06;22.00;90.10
25450;DHT22;13371;52.080;5.624;2022-07-26T03:07:32;21.70;90.30
25450;DHT22;13371;52.080;5.624;2022-07-26T03:09:57;21.80;90.20
25450;DHT22;13371;52.080;5.624;2022-07-26T03:12:23;21.70;90.50
25450;DHT22;13371;52.080;5.624;2022-07-26T03:14:49;21.80;90.30
25450;DHT22;13371;52.080;5.624;2022-07-26T03:17:15;21.80;90.00
25450;DHT22;13371;52.080;5.624;2022-07-26T03:19:40;22.10;89.50
25450;DHT22;13371;52.080;5.624;2022-07-26T03:22:06;22.20;89.00
25450;DHT22;13371;52.080;5.624;2022-07-26T03:24:31;22.30;88.60
25450;DHT22;13371;52.080;5.624;2022-07-26T03:26:57;22.30;88.40
25450;DHT22;13371;52.080;5.624;2022-07-26T03:29:23;22.30;88.40
25450;DHT22;13371;52.080;5.624;2022-07-26T03:31:48;22.30;88.00
25450;DHT22;13371;52.080;5.624;2022-07-26T03:34:14;22.20;88.50
25450;DHT22;13371;52.080;5.624;2022-07-26T03:36:40;22.10;88.40
25450;DHT22;13371;52.080;5.624;2022-07-26T03:39:08;22.20;88.40
25450;DHT22;13371;52.080;5.624;2022-07-26T03:41:33;22.30;88.10
25450;DHT22;13371;52.080;5.624;2022-07-26T03:43:59;22.30;87.80
25450;DHT22;13371;52.080;5.624;2022-07-26T03:46:25;22.30;87.70
25450;DHT22;13371;52.080;5.624;2022-07-26T03:48:50;22.20;87.20
25450;DHT22;13371;52.080;5.624;2022-07-26T03:51:16;22.20;87.80
25450;DHT22;13371;52.080;5.624;2022-07-26T03:53:41;22.20;87.30
25450;DHT22;13371;52.080;5.624;2022-07-26T03:56:07;21.90;88.30
25450;DHT22;13371;52.080;5.624;2022-07-26T03:59:09;22.00;88.30
25450;DHT22;13371;52.080;5.624;2022-07-26T04:01:36;21.80;88.70
25450;DHT22;13371;52.080;5.624;2022-07-26T04:04:07;21.90;88.60
25450;DHT22;13371;52.080;5.624;2022-07-26T04:06:33;21.70;89.00
25450;DHT22;13371;52.080;5.624;2022-07-26T04:08:59;21.60;89.10
25450;DHT22;13371;52.080;5.624;2022-07-26T04:11:25;21.70;88.70
25450;DHT22;13371;52.080;5.624;2022-07-26T04:13:50;21.70;88.80
25450;DHT22;13371;52.080;5.624;2022-07-26T04:16:16;21.60;88.50
25450;DHT22;13371;52.080;5.624;2022-07-26T04:18:42;21.60;88.50
25450;DHT22;13371;52.080;5.624;2022-07-26T04:21:07;21.60;88.60
25450;DHT22;13371;52.080;5.624;2022-07-26T04:23:33;21.60;88.60
25450;DHT22;13371;52.080;5.624;2022-07-26T04:25:59;21.70;88.70
25450;DHT22;13371;52.080;5.624;2022-07-26T04:28:24;21.50;88.80
25450;DHT22;13371;52.080;5.624;2022-07-26T04:30:53;21.40;89.10
25450;DHT22;13371;52.080;5.624;2022-07-26T04:33:19;21.30;89.40
25450;DHT22;13371;52.080;5.624;2022-07-26T04:35:45;21.40;89.50
25450;DHT22;13371;52.080;5.624;2022-07-26T04:38:10;21.50;89.00
25450;DHT22;13371;52.080;5.624;2022-07-26T04:40:36;21.50;88.90
25450;DHT22;13371;52.080;5.624;2022-07-26T04:43:02;21.50;89.10
25450;DHT22;13371;52.080;5.624;2022-07-26T04:45:27;21.60;88.70
25450;DHT22;13371;52.080;5.624;2022-07-26T04:47:53;21.70;88.50
25450;DHT22;13371;52.080;5.624;2022-07-26T04:50:20;21.70;88.70
25450;DHT22;13371;52.080;5.624;2022-07-26T04:52:47;21.40;89.10
25450;DHT22;13371;52.080;5.624;2022-07-26T04:55:13;21.40;89.40
25450;DHT22;13371;52.080;5.624;2022-07-26T04:57:38;21.10;90.20
25450;DHT22;13371;52.080;5.624;2022-07-26T05:00:06;21.20;90.40
25450;DHT22;13371;52.080;5.624;2022-07-26T05:02:32;21.20;90.40
25450;DHT22;13371;52.080;5.624;2022-07-26T05:04:58;21.10;90.10
25450;DHT22;13371;52.080;5.624;2022-07-26T05:07:23;21.20;90.20
25450;DHT22;13371;52.080;5.624;2022-07-26T05:09:49;21.40;90.00
25450;DHT22;13371;52.080;5.624;2022-07-26T05:12:14;21.50;90.00
25450;DHT22;13371;52.080;5.624;2022-07-26T05:14:40;21.50;90.00
25450;DHT22;13371;52.080;5.624;2022-07-26T05:17:06;21.20;90.20
25450;DHT22;13371;52.080;5.624;2022-07-26T05:19:31;21.10;90.40
25450;DHT22;13371;52.080;5.624;2022-07-26T05:21:57;20.80;91.00
25450;DHT22;13371;52.080;5.624;2022-07-26T05:24:23;21.20;90.80
25450;DHT22;13371;52.080;5.624;2022-07-26T05:26:48;21.10;90.90
25450;DHT22;13371;52.080;5.624;2022-07-26T05:29:14;21.00;90.90
25450;DHT22;13371;52.080;5.624;2022-07-26T05:31:39;21.00;91.10
25450;DHT22;13371;52.080;5.624;2022-07-26T05:34:05;21.00;91.30
25450;DHT22;13371;52.080;5.624;2022-07-26T05:36:30;20.90;91.40
25450;DHT22;13371;52.080;5.624;2022-07-26T05:38:56;20.90;91.80
25450;DHT22;13371;52.080;5.624;2022-07-26T05:41:21;20.70;92.00
25450;DHT22;13371;52.080;5.624;2022-07-26T05:43:47;20.90;91.60
25450;DHT22;13371;52.080;5.624;2022-07-26T05:46:13;20.80;92.10
25450;DHT22;13371;52.080;5.624;2022-07-26T05:48:40;21.00;91.60
25450;DHT22;13371;52.080;5.624;2022-07-26T05:51:06;21.20;91.40
25450;DHT22;13371;52.080;5.624;2022-07-26T05:53:32;21.10;91.60
25450;DHT22;13371;52.080;5.624;2022-07-26T05:55:58;21.30;91.50
25450;DHT22;13371;52.080;5.624;2022-07-26T05:58:24;21.30;91.40
25450;DHT22;13371;52.080;5.624;2022-07-26T06:03:39;21.30;91.70
25450;DHT22;13371;52.080;5.624;2022-07-26T06:06:05;21.40;91.80
25450;DHT22;13371;52.080;5.624;2022-07-26T06:08:31;21.40;92.00
25450;DHT22;13371;52.080;5.624;2022-07-26T06:10:57;21.60;92.10
25450;DHT22;13371;52.080;5.624;2022-07-26T06:13:22;21.60;91.80
25450;DHT22;13371;52.080;5.624;2022-07-26T06:15:50;21.80;92.20
25450;DHT22;13371;52.080;5.624;2022-07-26T06:18:16;21.60;92.40
25450;DHT22;13371;52.080;5.624;2022-07-26T06:20:43;21.70;92.70
25450;DHT22;13371;52.080;5.624;2022-07-26T06:23:10;21.70;92.80
25450;DHT22;13371;52.080;5.624;2022-07-26T06:26:07;21.80;92.60
25450;DHT22;13371;52.080;5.624;2022-07-26T06:28:42;21.20;92.00
25450;DHT22;13371;52.080;5.624;2022-07-26T06:31:08;20.90;93.00
25450;DHT22;13371;52.080;5.624;2022-07-26T06:33:34;20.90;92.90
25450;DHT22;13371;52.080;5.624;2022-07-26T06:35:59;20.80;92.90
25450;DHT22;13371;52.080;5.624;2022-07-26T06:38:25;20.50;93.50
25450;DHT22;13371;52.080;5.624;2022-07-26T06:40:51;20.30;93.80
25450;DHT22;13371;52.080;5.624;2022-07-26T06:43:16;20.80;93.60
25450;DHT22;13371;52.080;5.624;2022-07-26T06:45:42;21.10;93.70
25450;DHT22;13371;52.080;5.624;2022-07-26T06:48:13;21.40;93.30
25450;DHT22;13371;52.080;5.624;2022-07-26T06:50:42;21.50;93.10
25450;DHT22;13371;52.080;5.624;2022-07-26T06:53:13;21.70;92.90
25450;DHT22;13371;52.080;5.624;2022-07-26T06:55:40;21.70;92.80
25450;DHT22;13371;52.080;5.624;2022-07-26T06:58:05;21.90;92.80
25450;DHT22;13371;52.080;5.624;2022-07-26T07:00:31;21.90;92.60
25450;DHT22;13371;52.080;5.624;2022-07-26T07:02:57;21.70;92.90
25450;DHT22;13371;52.080;5.624;2022-07-26T07:05:22;21.50;93.30
25450;DHT22;13371;52.080;5.624;2022-07-26T07:07:48;21.50;93.60
25450;DHT22;13371;52.080;5.624;2022-07-26T07:10:13;21.40;93.60
25450;DHT22;13371;52.080;5.624;2022-07-26T07:12:39;21.40;93.90
25450;DHT22;13371;52.080;5.624;2022-07-26T07:15:06;21.50;93.50
25450;DHT22;13371;52.080;5.624;2022-07-26T07:17:32;21.20;93.40
25450;DHT22;13371;52.080;5.624;2022-07-26T07:19:57;21.30;93.80
25450;DHT22;13371;52.080;5.624;2022-07-26T07:22:24;21.20;93.70
25450;DHT22;13371;52.080;5.624;2022-07-26T07:24:50;21.00;93.80
25450;DHT22;13371;52.080;5.624;2022-07-26T07:27:16;21.20;94.00
25450;DHT22;13371;52.080;5.624;2022-07-26T07:29:42;21.30;93.90
25450;DHT22;13371;52.080;5.624;2022-07-26T07:32:08;21.30;93.50
25450;DHT22;13371;52.080;5.624;2022-07-26T07:34:33;21.50;94.10
25450;DHT22;13371;52.080;5.624;2022-07-26T07:36:59;21.50;93.70
25450;DHT22;13371;52.080;5.624;2022-07-26T07:39:25;21.50;93.90
25450;DHT22;13371;52.080;5.624;2022-07-26T07:41:50;21.50;93.40
25450;DHT22;13371;52.080;5.624;2022-07-26T07:44:16;21.60;93.70
25450;DHT22;13371;52.080;5.624;2022-07-26T07:46:41;21.30;94.20
25450;DHT22;13371;52.080;5.624;2022-07-26T07:49:07;21.40;94.40
25450;DHT22;13371;52.080;5.624;2022-07-26T07:51:34;21.00;93.40
25450;DHT22;13371;52.080;5.624;2022-07-26T07:54:00;21.00;95.00
25450;DHT22;13371;52.080;5.624;2022-07-26T07:56:25;21.10;94.60
25450;DHT22;13371;52.080;5.624;2022-07-26T07:58:51;21.10;94.70
25450;DHT22;13371;52.080;5.624;2022-07-26T08:01:17;21.10;94.70
25450;DHT22;13371;52.080;5.624;2022-07-26T08:03:42;21.20;94.30
25450;DHT22;13371;52.080;5.624;2022-07-26T08:06:09;21.10;94.10
25450;DHT22;13371;52.080;5.624;2022-07-26T08:08:35;21.20;94.10
25450;DHT22;13371;52.080;5.624;2022-07-26T08:11:01;21.20;94.00
25450;DHT22;13371;52.080;5.624;2022-07-26T08:13:27;21.10;94.30
25450;DHT22;13371;52.080;5.624;2022-07-26T08:15:53;21.10;93.90
25450;DHT22;13371;52.080;5.624;2022-07-26T08:18:21;21.30;93.70
25450;DHT22;13371;52.080;5.624;2022-07-26T08:20:47;21.40;93.90
25450;DHT22;13371;52.080;5.624;2022-07-26T08:23:12;21.50;93.80
25450;DHT22;13371;52.080;5.624;2022-07-26T08:25:38;21.60;94.00
25450;DHT22;13371;52.080;5.624;2022-07-26T08:28:04;21.30;92.90
25450;DHT22;13371;52.080;5.624;2022-07-26T08:30:31;21.10;92.90
25450;DHT22;13371;52.080;5.624;2022-07-26T08:32:57;21.30;93.10
25450;DHT22;13371;52.080;5.624;2022-07-26T08:35:22;21.60;93.80
25450;DHT22;13371;52.080;5.624;2022-07-26T08:37:48;21.80;93.40
25450;DHT22;13371;52.080;5.624;2022-07-26T08:40:13;21.90;92.20
25450;DHT22;13371;52.080;5.624;2022-07-26T08:42:39;21.90;92.20
25450;DHT22;13371;52.080;5.624;2022-07-26T08:45:05;21.90;91.00
25450;DHT22;13371;52.080;5.624;2022-07-26T08:47:31;21.90;92.50
25450;DHT22;13371;52.080;5.624;2022-07-26T08:49:57;21.70;92.30
25450;DHT22;13371;52.080;5.624;2022-07-26T08:52:23;21.40;92.80
25450;DHT22;13371;52.080;5.624;2022-07-26T08:54:50;21.00;92.70
25450;DHT22;13371;52.080;5.624;2022-07-26T08:57:16;20.70;92.60
25450;DHT22;13371;52.080;5.624;2022-07-26T08:59:42;20.70;93.40
25450;DHT22;13371;52.080;5.624;2022-07-26T09:02:11;20.40;93.40
25450;DHT22;13371;52.080;5.624;2022-07-26T09:04:42;20.50;93.60
25450;DHT22;13371;52.080;5.624;2022-07-26T09:07:18;20.60;93.70
25450;DHT22;13371;52.080;5.624;2022-07-26T09:10:06;20.80;94.30
25450;DHT22;13371;52.080;5.624;2022-07-26T09:12:33;20.90;94.10
25450;DHT22;13371;52.080;5.624;2022-07-26T09:15:00;20.70;92.90
25450;DHT22;13371;52.080;5.624;2022-07-26T09:17:40;20.70;92.60
25450;DHT22;13371;52.080;5.624;2022-07-26T09:20:19;21.20;93.70
25450;DHT22;13371;52.080;5.624;2022-07-26T09:25:25;21.20;92.50
25450;DHT22;13371;52.080;5.624;2022-07-26T09:27:51;21.20;93.80
25450;DHT22;13371;52.080;5.624;2022-07-26T09:30:17;21.40;94.00
25450;DHT22;13371;52.080;5.624;2022-07-26T09:33:06;21.70;92.90
25450;DHT22;13371;52.080;5.624;2022-07-26T09:35:35;22.10;92.00
25450;DHT22;13371;52.080;5.624;2022-07-26T09:38:14;22.50;92.50
25450;DHT22;13371;52.080;5.624;2022-07-26T09:40:40;22.50;91.50
25450;DHT22;13371;52.080;5.624;2022-07-26T09:43:06;21.90;91.30
25450;DHT22;13371;52.080;5.624;2022-07-26T09:45:34;21.00;91.60
25450;DHT22;13371;52.080;5.624;2022-07-26T09:48:01;20.50;93.30
25450;DHT22;13371;52.080;5.624;2022-07-26T09:50:29;20.30;93.90
25450;DHT22;13371;52.080;5.624;2022-07-26T09:53:05;20.20;94.00
25450;DHT22;13371;52.080;5.624;2022-07-26T09:55:33;20.20;95.10
25450;DHT22;13371;52.080;5.624;2022-07-26T09:57:59;20.30;95.10
25450;DHT22;13371;52.080;5.624;2022-07-26T10:00:29;20.50;94.50
25450;DHT22;13371;52.080;5.624;2022-07-26T10:02:55;20.80;94.50
25450;DHT22;13371;52.080;5.624;2022-07-26T10:05:20;20.70;93.80
25450;DHT22;13371;52.080;5.624;2022-07-26T10:07:50;21.00;94.10
25450;DHT22;13371;52.080;5.624;2022-07-26T10:10:21;21.20;94.00
25450;DHT22;13371;52.080;5.624;2022-07-26T10:12:50;21.40;93.30
25450;DHT22;13371;52.080;5.624;2022-07-26T10:15:39;21.60;93.50
25450;DHT22;13371;52.080;5.624;2022-07-26T10:18:07;21.90;93.50
25450;DHT22;13371;52.080;5.624;2022-07-26T10:20:46;22.00;92.30
25450;DHT22;13371;52.080;5.624;2022-07-26T10:23:45;21.50;91.80
25450;DHT22;13371;52.080;5.624;2022-07-26T10:26:33;21.60;92.20
25450;DHT22;13371;52.080;5.624;2022-07-26T10:31:43;22.20;92.20
25450;DHT22;13371;52.080;5.624;2022-07-26T10:34:08;22.30;91.60
25450;DHT22;13371;52.080;5.624;2022-07-26T10:36:36;22.00;92.30
25450;DHT22;13371;52.080;5.624;2022-07-26T10:39:09;21.90;90.60
25450;DHT22;13371;52.080;5.624;2022-07-26T10:41:41;22.00;91.40
25450;DHT22;13371;52.080;5.624;2022-07-26T10:44:13;22.20;92.10
25450;DHT22;13371;52.080;5.624;2022-07-26T10:49:43;22.30;91.00
25450;DHT22;13371;52.080;5.624;2022-07-26T10:52:19;22.30;91.20
25450;DHT22;13371;52.080;5.624;2022-07-26T10:57:39;22.80;89.70
25450;DHT22;13371;52.080;5.624;2022-07-26T11:00:11;22.70;89.50
25450;DHT22;13371;52.080;5.624;2022-07-26T11:02:37;22.70;90.00
25450;DHT22;13371;52.080;5.624;2022-07-26T11:05:07;22.80;90.00
25450;DHT22;13371;52.080;5.624;2022-07-26T11:10:25;22.40;88.50
25450;DHT22;13371;52.080;5.624;2022-07-26T11:13:24;21.90;88.20
25450;DHT22;13371;52.080;5.624;2022-07-26T11:15:51;21.70;90.80
25450;DHT22;13371;52.080;5.624;2022-07-26T11:18:24;21.60;90.80
25450;DHT22;13371;52.080;5.624;2022-07-26T11:20:56;21.20;90.70
25450;DHT22;13371;52.080;5.624;2022-07-26T11:23:30;21.10;92.10
25450;DHT22;13371;52.080;5.624;2022-07-26T11:26:00;21.00;92.60
25450;DHT22;13371;52.080;5.624;2022-07-26T11:28:25;21.10;92.10
25450;DHT22;13371;52.080;5.624;2022-07-26T11:30:58;20.90;90.70
25450;DHT22;13371;52.080;5.624;2022-07-26T11:33:38;20.50;91.50
25450;DHT22;13371;52.080;5.624;2022-07-26T11:36:04;20.50;91.50
25450;DHT22;13371;52.080;5.624;2022-07-26T11:39:12;21.00;93.00
25450;DHT22;13371;52.080;5.624;2022-07-26T11:41:43;21.60;92.50
25450;DHT22;13371;52.080;5.624;2022-07-26T11:44:18;22.00;91.80
25450;DHT22;13371;52.080;5.624;2022-07-26T11:46:44;22.40;90.90
25450;DHT22;13371;52.080;5.624;2022-07-26T11:49:24;22.70;87.70
25450;DHT22;13371;52.080;5.624;2022-07-26T11:51:59;22.20;88.20
25450;DHT22;13371;52.080;5.624;2022-07-26T11:54:27;22.30;88.80
25450;DHT22;13371;52.080;5.624;2022-07-26T11:56:58;22.30;87.50
25450;DHT22;13371;52.080;5.624;2022-07-26T11:59:29;22.10;86.60
25450;DHT22;13371;52.080;5.624;2022-07-26T12:01:56;22.00;87.30
25450;DHT22;13371;52.080;5.624;2022-07-26T12:04:25;22.20;88.50
25450;DHT22;13371;52.080;5.624;2022-07-26T12:06:52;22.20;85.90
25450;DHT22;13371;52.080;5.624;2022-07-26T12:09:34;22.30;87.70
25450;DHT22;13371;52.080;5.624;2022-07-26T12:12:01;22.60;87.70
25450;DHT22;13371;52.080;5.624;2022-07-26T12:14:32;22.80;85.50
25450;DHT22;13371;52.080;5.624;2022-07-26T12:17:08;23.10;85.50
25450;DHT22;13371;52.080;5.624;2022-07-26T12:19:34;23.30;85.90
25450;DHT22;13371;52.080;5.624;2022-07-26T12:22:16;23.20;81.60
25450;DHT22;13371;52.080;5.624;2022-07-26T12:27:19;23.30;83.30
25450;DHT22;13371;52.080;5.624;2022-07-26T12:29:48;23.30;83.50
25450;DHT22;13371;52.080;5.624;2022-07-26T12:32:16;23.20;82.10
25450;DHT22;13371;52.080;5.624;2022-07-26T12:35:06;23.00;82.60
25450;DHT22;13371;52.080;5.624;2022-07-26T12:40:13;23.10;83.40
25450;DHT22;13371;52.080;5.624;2022-07-26T12:43:04;23.20;82.90
25450;DHT22;13371;52.080;5.624;2022-07-26T12:45:31;23.20;83.00
25450;DHT22;13371;52.080;5.624;2022-07-26T12:47:58;23.30;82.80
25450;DHT22;13371;52.080;5.624;2022-07-26T12:50:26;22.50;78.50
25450;DHT22;13371;52.080;5.624;2022-07-26T12:52:58;22.50;85.40
25450;DHT22;13371;52.080;5.624;2022-07-26T12:55:25;22.30;84.80
25450;DHT22;13371;52.080;5.624;2022-07-26T12:57:50;22.40;83.10
25450;DHT22;13371;52.080;5.624;2022-07-26T13:00:16;22.50;83.20
25450;DHT22;13371;52.080;5.624;2022-07-26T13:02:45;22.50;82.50
25450;DHT22;13371;52.080;5.624;2022-07-26T13:05:11;22.80;83.20
25450;DHT22;13371;52.080;5.624;2022-07-26T13:07:37;22.90;80.20
25450;DHT22;13371;52.080;5.624;2022-07-26T13:10:04;22.90;81.70
25450;DHT22;13371;52.080;5.624;2022-07-26T13:12:30;22.80;79.40
25450;DHT22;13371;52.080;5.624;2022-07-26T13:14:56;22.60;81.20
25450;DHT22;13371;52.080;5.624;2022-07-26T13:17:21;22.70;79.90
25450;DHT22;13371;52.080;5.624;2022-07-26T13:19:47;22.90;80.90
25450;DHT22;13371;52.080;5.624;2022-07-26T13:22:13;22.90;80.80
25450;DHT22;13371;52.080;5.624;2022-07-26T13:24:38;22.40;76.30
25450;DHT22;13371;52.080;5.624;2022-07-26T13:27:06;22.50;79.20
25450;DHT22;13371;52.080;5.624;2022-07-26T13:29:32;22.80;78.60
25450;DHT22;13371;52.080;5.624;2022-07-26T13:31:58;22.60;82.40
25450;DHT22;13371;52.080;5.624;2022-07-26T13:34:25;22.70;80.80
25450;DHT22;13371;52.080;5.624;2022-07-26T13:36:50;22.40;80.10
25450;DHT22;13371;52.080;5.624;2022-07-26T13:39:17;22.20;81.00
25450;DHT22;13371;52.080;5.624;2022-07-26T13:41:43;22.40;79.70
25450;DHT22;13371;52.080;5.624;2022-07-26T13:44:08;22.50;80.30
25450;DHT22;13371;52.080;5.624;2022-07-26T13:46:34;22.70;77.50
25450;DHT22;13371;52.080;5.624;2022-07-26T13:49:01;22.40;77.00
25450;DHT22;13371;52.080;5.624;2022-07-26T13:51:32;22.70;79.50
25450;DHT22;13371;52.080;5.624;2022-07-26T13:54:17;22.70;77.30
25450;DHT22;13371;52.080;5.624;2022-07-26T13:56:44;23.00;78.60
25450;DHT22;13371;52.080;5.624;2022-07-26T13:59:10;23.10;75.50
25450;DHT22;13371;52.080;5.624;2022-07-26T14:01:36;23.30;77.30
25450;DHT22;13371;52.080;5.624;2022-07-26T14:04:03;23.50;75.70
25450;DHT22;13371;52.080;5.624;2022-07-26T14:06:29;23.80;76.70
25450;DHT22;13371;52.080;5.624;2022-07-26T14:08:55;23.90;74.90
25450;DHT22;13371;52.080;5.624;2022-07-26T14:11:20;23.70;73.20
25450;DHT22;13371;52.080;5.624;2022-07-26T14:13:46;23.10;74.00
25450;DHT22;13371;52.080;5.624;2022-07-26T14:16:12;22.60;73.20
25450;DHT22;13371;52.080;5.624;2022-07-26T14:18:37;22.60;75.30
25450;DHT22;13371;52.080;5.624;2022-07-26T14:21:03;22.90;76.70
25450;DHT22;13371;52.080;5.624;2022-07-26T14:23:29;23.30;71.70
25450;DHT22;13371;52.080;5.624;2022-07-26T14:25:55;23.70;72.90
25450;DHT22;13371;52.080;5.624;2022-07-26T14:28:21;24.20;75.40
25450;DHT22;13371;52.080;5.624;2022-07-26T14:30:46;24.70;72.20
25450;DHT22;13371;52.080;5.624;2022-07-26T14:33:12;24.80;70.80
25450;DHT22;13371;52.080;5.624;2022-07-26T14:35:38;24.60;67.80
25450;DHT22;13371;52.080;5.624;2022-07-26T14:38:04;24.70;67.40
25450;DHT22;13371;52.080;5.624;2022-07-26T14:40:29;24.60;65.40
25450;DHT22;13371;52.080;5.624;2022-07-26T14:42:55;23.90;67.90
25450;DHT22;13371;52.080;5.624;2022-07-26T14:45:20;24.20;69.50
25450;DHT22;13371;52.080;5.624;2022-07-26T14:47:46;23.90;66.40
25450;DHT22;13371;52.080;5.624;2022-07-26T14:50:13;23.60;69.20
25450;DHT22;13371;52.080;5.624;2022-07-26T14:52:44;23.80;68.20
25450;DHT22;13371;52.080;5.624;2022-07-26T14:55:11;24.10;70.10
25450;DHT22;13371;52.080;5.624;2022-07-26T14:57:37;24.30;66.90
25450;DHT22;13371;52.080;5.624;2022-07-26T15:00:04;24.50;68.00
25450;DHT22;13371;52.080;5.624;2022-07-26T15:02:30;24.70;67.70
25450;DHT22;13371;52.080;5.624;2022-07-26T15:04:56;24.70;67.30
25450;DHT22;13371;52.080;5.624;2022-07-26T15:07:21;24.50;65.50
25450;DHT22;13371;52.080;5.624;2022-07-26T15:09:47;24.70;67.90
25450;DHT22;13371;52.080;5.624;2022-07-26T15:12:13;24.40;67.50
25450;DHT22;13371;52.080;5.624;2022-07-26T15:14:38;24.50;67.70
25450;DHT22;13371;52.080;5.624;2022-07-26T15:17:05;24.30;65.90
25450;DHT22;13371;52.080;5.624;2022-07-26T15:19:30;23.80;66.30
25450;DHT22;13371;52.080;5.624;2022-07-26T15:21:56;23.80;70.00
25450;DHT22;13371;52.080;5.624;2022-07-26T15:24:23;23.80;68.90
25450;DHT22;13371;52.080;5.624;2022-07-26T15:26:48;23.90;69.20
25450;DHT22;13371;52.080;5.624;2022-07-26T15:29:14;23.80;68.10
25450;DHT22;13371;52.080;5.624;2022-07-26T15:31:40;23.80;66.60
25450;DHT22;13371;52.080;5.624;2022-07-26T15:34:06;23.60;67.20
25450;DHT22;13371;52.080;5.624;2022-07-26T15:36:32;23.60;67.20
25450;DHT22;13371;52.080;5.624;2022-07-26T15:38:58;23.60;68.40
25450;DHT22;13371;52.080;5.624;2022-07-26T15:41:23;23.80;68.90
25450;DHT22;13371;52.080;5.624;2022-07-26T15:43:49;23.60;66.30
25450;DHT22;13371;52.080;5.624;2022-07-26T15:46:15;23.50;70.30
25450;DHT22;13371;52.080;5.624;2022-07-26T15:48:41;23.50;70.20
25450;DHT22;13371;52.080;5.624;2022-07-26T15:51:06;23.40;67.90
25450;DHT22;13371;52.080;5.624;2022-07-26T15:53:32;22.90;68.20
25450;DHT22;13371;52.080;5.624;2022-07-26T15:55:59;22.50;69.80